sensor_id;sensor_type;location;lat;lon;timestamp;temperature;humidity
10530;DHT22;5313;48.834;9.228;2023-02-28T00:02:13;-1.10;99.90
10530;DHT22;5313;48.834;9.228;2023-02-28T00:04:38;-1.00;99.90
10530;DHT22;5313;48.834;9.228;2023-02-28T00:07:04;-1.10;99.90
10530;DHT22;5313;48.834;9.228;2023-02-28T00:09:29;-1.00;99.90
10530;DHT22;5313;48.834;9.228;2023-02-28T00:11:55;-1.20;99.90
10530;DHT22;5313;48.834;9.228;2023-02-28T00:14:20;-1.20;99.90
10530;DHT22;5313;48.834;9.228;2023-02-28T00:16:46;-1.20;99.90
10530;DHT22;5313;48.834;9.228;2023-02-28T00:19:11;-1.10;99.90
10530;DHT22;5313;48.834;9.228;2023-02-28T00:21:38;-1.10;99.90
10530;DHT22;5313;48.834;9.228;2023-02-28T00:24:06;-1.20;99.90
10530;DHT22;5313;48.834;9.228;2023-02-28T00:26:31;-1.20;99.90
10530;DHT22;5313;48.834;9.228;2023-02-28T00:28:57;-1.30;99.90
10530;DHT22;5313;48.834;9.228;2023-02-28T00:31:23;-1.30;99.90
10530;DHT22;5313;48.834;9.228;2023-02-28T00:33:48;-1.30;99.90
10530;DHT22;5313;48.834;9.228;2023-02-28T00:36:14;-1.40;99.90
10530;DHT22;5313;48.834;9.228;2023-02-28T00:38:40;-1.40;99.90
10530;DHT22;5313;48.834;9.228;2023-02-28T00:41:06;-1.30;99.90
10530;DHT22;5313;48.834;9.228;2023-02-28T00:43:34;-1.40;99.90
10530;DHT22;5313;48.834;9.228;2023-02-28T00:46:01;-1.40;99.90
10530;DHT22;5313;48.834;9.228;2023-02-28T00:48:26;-1.40;99.90
10530;DHT22;5313;48.834;9.228;2023-02-28T00:50:53;-1.40;99.90
10530;DHT22;5313;48.834;9.228;2023-02-28T00:53:18;-1.40;99.90
10530;DHT22;5313;48.834;9.228;2023-02-28T00:55:44;-1.50;99.90
10530;DHT22;5313;48.834;9.228;2023-02-28T00:58:09;-1.50;99.90
10530;DHT22;5313;48.834;9.228;2023-02-28T01:00:35;-1.50;99.90
10530;DHT22;5313;48.834;9.228;2023-02-28T01:03:00;-1.60;99.90
10530;DHT22;5313;48.834;9.228;2023-02-28T01:05:26;-1.60;99.90
10530;DHT22;5313;48.834;9.228;2023-02-28T01:07:52;-1.70;99.90
10530;DHT22;5313;48.834;9.228;2023-02-28T01:10:17;-1.70;99.90
10530;DHT22;5313;48.834;9.228;2023-02-28T01:12:43;-1.60;99.90
10530;DHT22;5313;48.834;9.228;2023-02-28T01:15:10;-1.70;99.90
10530;DHT22;5313;48.834;9.228;2023-02-28T01:17:36;-1.70;99.90
10530;DHT22;5313;48.834;9.228;2023-02-28T01:20:02;-1.60;99.90
10530;DHT22;5313;48.834;9.228;2023-02-28T01:22:28;-1.50;99.90
10530;DHT22;5313;48.834;9.228;2023-02-28T01:24:53;-1.60;99.90
10530;DHT22;5313;48.834;9.228;2023-02-28T01:27:19;-1.60;99.90
10530;DHT22;5313;48.834;9.228;2023-02-28T01:29:44;-1.60;99.90
10530;DHT22;5313;48.834;9.228;2023-02-28T01:32:10;-1.60;99.90
10530;DHT22;5313;48.834;9.228;2023-02-28T01:34:35;-1.70;99.90
10530;DHT22;5313;48.834;9.228;2023-02-28T01:37:01;-1.60;99.90
10530;DHT22;5313;48.834;9.228;2023-02-28T01:39:29;-1.70;99.90
10530;DHT22;5313;48.834;9.228;2023-02-28T01:41:54;-1.70;99.90
10530;DHT22;5313;48.834;9.228;2023-02-28T01:47:20;-1.60;99.90
10530;DHT22;5313;48.834;9.228;2023-02-28T01:49:47;-1.60;99.90
10530;DHT22;5313;48.834;9.228;2023-02-28T01:52:14;-1.60;99.90
10530;DHT22;5313;48.834;9.228;2023-02-28T01:54:45;-1.60;99.90
10530;DHT22;5313;48.834;9.228;2023-02-28T01:57:16;-1.60;99.90
10530;DHT22;5313;48.834;9.228;2023-02-28T02:00:02;-1.60;99.90
10530;DHT22;5313;48.834;9.228;2023-02-28T02:02:32;-1.60;99.90
10530;DHT22;5313;48.834;9.228;2023-02-28T02:04:59;-1.60;99.90
10530;DHT22;5313;48.834;9.228;2023-02-28T02:07:28;-1.70;99.90
10530;DHT22;5313;48.834;9.228;2023-02-28T02:10:13;-1.70;99.90
10530;DHT22;5313;48.834;9.228;2023-02-28T02:18:32;-1.70;99.90
10530;DHT22;5313;48.834;9.228;2023-02-28T02:32:49;-1.60;99.90
10530;DHT22;5313;48.834;9.228;2023-02-28T02:35:31;-1.70;99.90
10530;DHT22;5313;48.834;9.228;2023-02-28T02:38:04;-1.70;99.90
10530;DHT22;5313;48.834;9.228;2023-02-28T02:40:38;-1.70;99.90
10530;DHT22;5313;48.834;9.228;2023-02-28T02:43:16;-1.60;99.90
10530;DHT22;5313;48.834;9.228;2023-02-28T02:45:47;-1.60;99.90
10530;DHT22;5313;48.834;9.228;2023-02-28T02:48:17;-1.60;99.90
10530;DHT22;5313;48.834;9.228;2023-02-28T02:50:50;-1.70;99.90
10530;DHT22;5313;48.834;9.228;2023-02-28T02:53:20;-1.70;99.90
10530;DHT22;5313;48.834;9.228;2023-02-28T02:55:49;-1.70;99.90
10530;DHT22;5313;48.834;9.228;2023-02-28T02:58:22;-1.70;99.90
10530;DHT22;5313;48.834;9.228;2023-02-28T03:00:53;-1.60;99.90
10530;DHT22;5313;48.834;9.228;2023-02-28T03:03:20;-1.60;99.90
10530;DHT22;5313;48.834;9.228;2023-02-28T03:05:55;-1.60;99.90
10530;DHT22;5313;48.834;9.228;2023-02-28T03:08:20;-1.50;99.90
10530;DHT22;5313;48.834;9.228;2023-02-28T03:10:56;-1.60;99.90
10530;DHT22;5313;48.834;9.228;2023-02-28T03:24:18;-1.40;99.90
10530;DHT22;5313;48.834;9.228;2023-02-28T03:26:52;-1.30;99.90
10530;DHT22;5313;48.834;9.228;2023-02-28T03:29:34;-1.30;99.90
10530;DHT22;5313;48.834;9.228;2023-02-28T03:32:03;-1.30;99.90
10530;DHT22;5313;48.834;9.228;2023-02-28T03:34:39;-1.30;99.90
10530;DHT22;5313;48.834;9.228;2023-02-28T03:37:10;-1.30;99.90
10530;DHT22;5313;48.834;9.228;2023-02-28T03:39:44;-1.30;99.90
10530;DHT22;5313;48.834;9.228;2023-02-28T03:42:25;-1.30;99.90
10530;DHT22;5313;48.834;9.228;2023-02-28T03:45:02;-1.20;99.90
10530;DHT22;5313;48.834;9.228;2023-02-28T03:47:36;-1.20;99.90
10530;DHT22;5313;48.834;9.228;2023-02-28T03:50:07;-1.20;99.90
10530;DHT22;5313;48.834;9.228;2023-02-28T03:52:39;-1.20;99.90
10530;DHT22;5313;48.834;9.228;2023-02-28T03:55:10;-1.20;99.90
10530;DHT22;5313;48.834;9.228;2023-02-28T03:57:57;-1.20;99.90
10530;DHT22;5313;48.834;9.228;2023-02-28T04:00:28;-1.20;99.90
10530;DHT22;5313;48.834;9.228;2023-02-28T04:02:54;-1.10;99.90
10530;DHT22;5313;48.834;9.228;2023-02-28T04:05:21;-1.10;99.90
10530;DHT22;5313;48.834;9.228;2023-02-28T04:07:47;-1.10;99.90
10530;DHT22;5313;48.834;9.228;2023-02-28T04:10:13;-1.20;99.90
10530;DHT22;5313;48.834;9.228;2023-02-28T04:12:39;-1.10;99.90
10530;DHT22;5313;48.834;9.228;2023-02-28T04:15:05;-1.10;99.90
10530;DHT22;5313;48.834;9.228;2023-02-28T04:17:31;-1.10;99.90
10530;DHT22;5313;48.834;9.228;2023-02-28T04:19:57;-1.10;99.90
10530;DHT22;5313;48.834;9.228;2023-02-28T04:22:23;-1.00;99.90
10530;DHT22;5313;48.834;9.228;2023-02-28T04:24:51;-1.00;99.90
10530;DHT22;5313;48.834;9.228;2023-02-28T04:27:20;-1.00;99.90
10530;DHT22;5313;48.834;9.228;2023-02-28T04:29:45;-1.10;99.90
10530;DHT22;5313;48.834;9.228;2023-02-28T04:32:11;-1.00;99.90
10530;DHT22;5313;48.834;9.228;2023-02-28T04:34:37;-1.00;99.90
10530;DHT22;5313;48.834;9.228;2023-02-28T04:37:03;-0.90;99.90
10530;DHT22;5313;48.834;9.228;2023-02-28T04:39:29;-1.00;99.90
10530;DHT22;5313;48.834;9.228;2023-02-28T04:41:55;-1.00;99.90
10530;DHT22;5313;48.834;9.228;2023-02-28T04:44:21;-1.00;99.90
10530;DHT22;5313;48.834;9.228;2023-02-28T04:46:48;-1.00;99.90
10530;DHT22;5313;48.834;9.228;2023-02-28T04:49:14;-1.00;99.90
10530;DHT22;5313;48.834;9.228;2023-02-28T04:51:40;-0.90;99.90
10530;DHT22;5313;48.834;9.228;2023-02-28T04:54:06;-0.90;99.90
10530;DHT22;5313;48.834;9.228;2023-02-28T04:56:32;-0.90;99.90
10530;DHT22;5313;48.834;9.228;2023-02-28T04:58:58;-0.90;99.90
10530;DHT22;5313;48.834;9.228;2023-02-28T05:01:28;-0.90;99.90
10530;DHT22;5313;48.834;9.228;2023-02-28T05:03:56;-0.90;99.90
10530;DHT22;5313;48.834;9.228;2023-02-28T05:06:27;-0.90;99.90
10530;DHT22;5313;48.834;9.228;2023-02-28T05:08:53;-0.90;99.90
10530;DHT22;5313;48.834;9.228;2023-02-28T05:11:21;-0.90;99.90
10530;DHT22;5313;48.834;9.228;2023-02-28T05:13:49;-0.90;99.90
10530;DHT22;5313;48.834;9.228;2023-02-28T05:16:15;-1.00;99.90
10530;DHT22;5313;48.834;9.228;2023-02-28T05:18:41;-0.90;99.90
10530;DHT22;5313;48.834;9.228;2023-02-28T05:21:31;-0.90;99.90
10530;DHT22;5313;48.834;9.228;2023-02-28T05:24:02;-0.90;99.90
10530;DHT22;5313;48.834;9.228;2023-02-28T05:26:29;-0.90;99.90
10530;DHT22;5313;48.834;9.228;2023-02-28T05:28:55;-0.90;99.90
10530;DHT22;5313;48.834;9.228;2023-02-28T05:31:21;-0.90;99.90
10530;DHT22;5313;48.834;9.228;2023-02-28T05:33:47;-0.90;99.90
10530;DHT22;5313;48.834;9.228;2023-02-28T05:36:12;-0.80;99.90
10530;DHT22;5313;48.834;9.228;2023-02-28T05:38:38;-0.90;99.90
10530;DHT22;5313;48.834;9.228;2023-02-28T05:41:10;-0.80;99.90
10530;DHT22;5313;48.834;9.228;2023-02-28T05:43:37;-0.80;99.90
10530;DHT22;5313;48.834;9.228;2023-02-28T05:46:07;-0.80;99.90
10530;DHT22;5313;48.834;9.228;2023-02-28T05:48:35;-0.90;99.90
10530;DHT22;5313;48.834;9.228;2023-02-28T05:51:01;-0.90;99.90
10530;DHT22;5313;48.834;9.228;2023-02-28T05:53:27;-0.80;99.90
10530;DHT22;5313;48.834;9.228;2023-02-28T05:55:53;-0.80;99.90
10530;DHT22;5313;48.834;9.228;2023-02-28T05:58:18;-0.80;99.90
10530;DHT22;5313;48.834;9.228;2023-02-28T06:00:44;-0.80;99.90
10530;DHT22;5313;48.834;9.228;2023-02-28T06:03:09;-0.80;99.90
10530;DHT22;5313;48.834;9.228;2023-02-28T06:05:35;-0.80;99.90
10530;DHT22;5313;48.834;9.228;2023-02-28T06:08:00;-0.80;99.90
10530;DHT22;5313;48.834;9.228;2023-02-28T06:10:26;-0.80;99.90
10530;DHT22;5313;48.834;9.228;2023-02-28T06:12:51;-0.80;99.90
10530;DHT22;5313;48.834;9.228;2023-02-28T06:15:17;-0.80;99.90
10530;DHT22;5313;48.834;9.228;2023-02-28T06:17:43;-0.80;99.90
10530;DHT22;5313;48.834;9.228;2023-02-28T06:20:10;-0.70;99.90
10530;DHT22;5313;48.834;9.228;2023-02-28T06:22:38;-0.70;99.90
10530;DHT22;5313;48.834;9.228;2023-02-28T06:25:05;-0.70;99.90
10530;DHT22;5313;48.834;9.228;2023-02-28T06:27:32;-0.70;99.90
10530;DHT22;5313;48.834;9.228;2023-02-28T06:29:57;-0.70;99.90
10530;DHT22;5313;48.834;9.228;2023-02-28T06:32:23;-0.70;99.90
10530;DHT22;5313;48.834;9.228;2023-02-28T06:34:49;-0.70;99.90
10530;DHT22;5313;48.834;9.228;2023-02-28T06:37:16;-0.70;99.90
10530;DHT22;5313;48.834;9.228;2023-02-28T06:39:41;-0.70;99.90
10530;DHT22;5313;48.834;9.228;2023-02-28T06:42:07;-0.60;99.90
10530;DHT22;5313;48.834;9.228;2023-02-28T06:44:32;-0.60;99.90
10530;DHT22;5313;48.834;9.228;2023-02-28T06:47:01;-0.60;99.90
10530;DHT22;5313;48.834;9.228;2023-02-28T06:49:29;-0.60;99.90
10530;DHT22;5313;48.834;9.228;2023-02-28T06:51:54;-0.70;99.90
10530;DHT22;5313;48.834;9.228;2023-02-28T06:54:20;-0.60;99.90
10530;DHT22;5313;48.834;9.228;2023-02-28T06:56:45;-0.60;99.90
10530;DHT22;5313;48.834;9.228;2023-02-28T06:59:12;-0.60;99.90
10530;DHT22;5313;48.834;9.228;2023-02-28T07:01:38;-0.60;99.90
10530;DHT22;5313;48.834;9.228;2023-02-28T07:04:04;-0.60;99.90
10530;DHT22;5313;48.834;9.228;2023-02-28T07:06:30;-0.60;99.90
10530;DHT22;5313;48.834;9.228;2023-02-28T07:08:56;-0.60;99.90
10530;DHT22;5313;48.834;9.228;2023-02-28T07:11:23;0.90;99.90
10530;DHT22;5313;48.834;9.228;2023-02-28T07:13:51;-0.50;99.90
10530;DHT22;5313;48.834;9.228;2023-02-28T07:16:17;-0.50;99.90
10530;DHT22;5313;48.834;9.228;2023-02-28T07:18:43;-0.40;99.90
10530;DHT22;5313;48.834;9.228;2023-02-28T07:21:10;-0.40;99.90
10530;DHT22;5313;48.834;9.228;2023-02-28T07:23:36;-0.40;99.90
10530;DHT22;5313;48.834;9.228;2023-02-28T07:26:04;-0.40;99.90
10530;DHT22;5313;48.834;9.228;2023-02-28T07:28:29;-0.40;99.90
10530;DHT22;5313;48.834;9.228;2023-02-28T07:30:55;-0.40;99.90
10530;DHT22;5313;48.834;9.228;2023-02-28T07:33:20;-0.40;99.90
10530;DHT22;5313;48.834;9.228;2023-02-28T07:35:46;-0.40;99.90
10530;DHT22;5313;48.834;9.228;2023-02-28T07:38:12;-0.30;99.90
10530;DHT22;5313;48.834;9.228;2023-02-28T07:40:39;-0.30;99.90
10530;DHT22;5313;48.834;9.228;2023-02-28T07:43:05;-0.30;99.90
10530;DHT22;5313;48.834;9.228;2023-02-28T07:45:30;-0.20;99.90
10530;DHT22;5313;48.834;9.228;2023-02-28T07:47:59;-0.20;99.90
10530;DHT22;5313;48.834;9.228;2023-02-28T07:50:25;-0.20;99.90
10530;DHT22;5313;48.834;9.228;2023-02-28T07:52:50;-0.30;99.90
10530;DHT22;5313;48.834;9.228;2023-02-28T07:55:16;-0.30;99.90
10530;DHT22;5313;48.834;9.228;2023-02-28T07:57:42;-0.30;99.90
10530;DHT22;5313;48.834;9.228;2023-02-28T08:00:10;-0.30;99.90
10530;DHT22;5313;48.834;9.228;2023-02-28T08:02:36;-0.30;99.90
10530;DHT22;5313;48.834;9.228;2023-02-28T08:05:02;-0.20;99.90
10530;DHT22;5313;48.834;9.228;2023-02-28T08:07:27;-0.20;99.90
10530;DHT22;5313;48.834;9.228;2023-02-28T08:09:53;-0.20;99.90
10530;DHT22;5313;48.834;9.228;2023-02-28T08:12:18;-0.10;99.90
10530;DHT22;5313;48.834;9.228;2023-02-28T08:14:44;-0.10;99.90
10530;DHT22;5313;48.834;9.228;2023-02-28T08:17:10;-0.10;99.90
10530;DHT22;5313;48.834;9.228;2023-02-28T08:19:36;0.00;99.90
10530;DHT22;5313;48.834;9.228;2023-02-28T08:22:02;0.00;99.90
10530;DHT22;5313;48.834;9.228;2023-02-28T08:24:28;0.00;99.90
10530;DHT22;5313;48.834;9.228;2023-02-28T08:26:54;0.00;99.90
10530;DHT22;5313;48.834;9.228;2023-02-28T08:29:19;0.00;99.90
10530;DHT22;5313;48.834;9.228;2023-02-28T08:31:45;0.00;99.90
10530;DHT22;5313;48.834;9.228;2023-02-28T08:34:13;0.10;99.90
10530;DHT22;5313;48.834;9.228;2023-02-28T08:36:39;0.00;99.90
10530;DHT22;5313;48.834;9.228;2023-02-28T08:39:06;0.10;99.90
10530;DHT22;5313;48.834;9.228;2023-02-28T08:41:31;0.10;99.90
10530;DHT22;5313;48.834;9.228;2023-02-28T08:43:57;0.20;99.90
10530;DHT22;5313;48.834;9.228;2023-02-28T08:46:23;0.20;99.90
10530;DHT22;5313;48.834;9.228;2023-02-28T08:48:52;0.30;99.90
10530;DHT22;5313;48.834;9.228;2023-02-28T08:51:19;0.30;99.90
10530;DHT22;5313;48.834;9.228;2023-02-28T08:53:52;0.40;99.90
10530;DHT22;5313;48.834;9.228;2023-02-28T08:56:19;0.40;99.90
10530;DHT22;5313;48.834;9.228;2023-02-28T08:58:45;0.40;99.90
10530;DHT22;5313;48.834;9.228;2023-02-28T09:01:14;0.50;99.90
10530;DHT22;5313;48.834;9.228;2023-02-28T09:03:40;0.50;99.90
10530;DHT22;5313;48.834;9.228;2023-02-28T09:06:09;0.50;99.90
10530;DHT22;5313;48.834;9.228;2023-02-28T09:08:36;0.70;99.90
10530;DHT22;5313;48.834;9.228;2023-02-28T09:11:02;0.80;99.90
10530;DHT22;5313;48.834;9.228;2023-02-28T09:13:28;0.90;99.90
10530;DHT22;5313;48.834;9.228;2023-02-28T09:15:58;0.90;99.90
10530;DHT22;5313;48.834;9.228;2023-02-28T09:18:24;1.00;99.90
10530;DHT22;5313;48.834;9.228;2023-02-28T09:20:49;1.00;99.90
10530;DHT22;5313;48.834;9.228;2023-02-28T09:23:16;1.00;99.90
10530;DHT22;5313;48.834;9.228;2023-02-28T09:25:46;1.10;99.90
10530;DHT22;5313;48.834;9.228;2023-02-28T09:28:12;1.00;99.90
10530;DHT22;5313;48.834;9.228;2023-02-28T09:30:37;1.10;99.90
10530;DHT22;5313;48.834;9.228;2023-02-28T09:33:03;0.90;99.90
10530;DHT22;5313;48.834;9.228;2023-02-28T09:35:29;1.10;99.90
10530;DHT22;5313;48.834;9.228;2023-02-28T09:37:56;1.10;99.90
10530;DHT22;5313;48.834;9.228;2023-02-28T09:40:23;1.20;99.90
10530;DHT22;5313;48.834;9.228;2023-02-28T09:42:52;1.40;99.90
10530;DHT22;5313;48.834;9.228;2023-02-28T09:45:34;1.30;99.90
10530;DHT22;5313;48.834;9.228;2023-02-28T09:48:12;1.40;99.90
10530;DHT22;5313;48.834;9.228;2023-02-28T09:50:48;1.50;99.90
10530;DHT22;5313;48.834;9.228;2023-02-28T09:53:22;1.50;99.90
10530;DHT22;5313;48.834;9.228;2023-02-28T09:55:55;1.30;99.90
10530;DHT22;5313;48.834;9.228;2023-02-28T09:58:26;1.50;99.90
10530;DHT22;5313;48.834;9.228;2023-02-28T10:01:05;1.60;99.90
10530;DHT22;5313;48.834;9.228;2023-02-28T10:03:56;1.60;99.90
10530;DHT22;5313;48.834;9.228;2023-02-28T10:06:28;1.60;99.90
10530;DHT22;5313;48.834;9.228;2023-02-28T10:09:14;1.60;99.90
10530;DHT22;5313;48.834;9.228;2023-02-28T10:11:42;1.80;99.90
10530;DHT22;5313;48.834;9.228;2023-02-28T10:14:19;2.00;99.90
10530;DHT22;5313;48.834;9.228;2023-02-28T10:16:52;1.90;99.90
10530;DHT22;5313;48.834;9.228;2023-02-28T10:19:42;1.90;99.90
10530;DHT22;5313;48.834;9.228;2023-02-28T10:22:14;2.00;99.90
10530;DHT22;5313;48.834;9.228;2023-02-28T10:24:46;1.90;99.90
10530;DHT22;5313;48.834;9.228;2023-02-28T10:29:43;2.00;99.90
10530;DHT22;5313;48.834;9.228;2023-02-28T10:32:13;1.80;99.90
10530;DHT22;5313;48.834;9.228;2023-02-28T10:34:39;2.00;99.90
10530;DHT22;5313;48.834;9.228;2023-02-28T10:37:05;2.00;99.90
10530;DHT22;5313;48.834;9.228;2023-02-28T10:39:35;2.10;99.90
10530;DHT22;5313;48.834;9.228;2023-02-28T10:42:01;2.40;99.90
10530;DHT22;5313;48.834;9.228;2023-02-28T10:44:27;2.40;99.90
10530;DHT22;5313;48.834;9.228;2023-02-28T10:46:53;2.40;99.90
10530;DHT22;5313;48.834;9.228;2023-02-28T10:49:24;2.40;99.90
10530;DHT22;5313;48.834;9.228;2023-02-28T10:51:54;2.40;99.90
10530;DHT22;5313;48.834;9.228;2023-02-28T10:54:24;2.50;99.90
10530;DHT22;5313;48.834;9.228;2023-02-28T10:57:20;2.60;99.90
10530;DHT22;5313;48.834;9.228;2023-02-28T10:59:52;2.60;99.90
10530;DHT22;5313;48.834;9.228;2023-02-28T11:02:38;2.80;99.90
10530;DHT22;5313;48.834;9.228;2023-02-28T11:07:55;2.60;99.90
10530;DHT22;5313;48.834;9.228;2023-02-28T11:10:24;2.60;99.90
10530;DHT22;5313;48.834;9.228;2023-02-28T11:12:54;2.90;99.90
10530;DHT22;5313;48.834;9.228;2023-02-28T11:18:00;3.30;99.90
10530;DHT22;5313;48.834;9.228;2023-02-28T11:20:29;3.90;99.90
10530;DHT22;5313;48.834;9.228;2023-02-28T11:22:57;4.40;99.90
10530;DHT22;5313;48.834;9.228;2023-02-28T11:25:30;4.60;99.90
10530;DHT22;5313;48.834;9.228;2023-02-28T11:27:58;4.50;99.90
10530;DHT22;5313;48.834;9.228;2023-02-28T11:30:40;4.60;99.90
10530;DHT22;5313;48.834;9.228;2023-02-28T11:33:28;4.10;99.90
10530;DHT22;5313;48.834;9.228;2023-02-28T11:36:00;4.40;99.90
10530;DHT22;5313;48.834;9.228;2023-02-28T11:38:26;4.50;99.90
10530;DHT22;5313;48.834;9.228;2023-02-28T11:41:01;4.80;99.90
10530;DHT22;5313;48.834;9.228;2023-02-28T11:43:51;5.00;99.90
10530;DHT22;5313;48.834;9.228;2023-02-28T11:46:41;5.40;99.90
10530;DHT22;5313;48.834;9.228;2023-02-28T11:49:56;5.60;99.90
10530;DHT22;5313;48.834;9.228;2023-02-28T11:52:52;5.80;99.90
10530;DHT22;5313;48.834;9.228;2023-02-28T11:58:05;6.60;99.90
10530;DHT22;5313;48.834;9.228;2023-02-28T12:06:31;6.50;99.90
10530;DHT22;5313;48.834;9.228;2023-02-28T12:11:59;7.00;99.90
10530;DHT22;5313;48.834;9.228;2023-02-28T12:17:34;6.50;99.90
10530;DHT22;5313;48.834;9.228;2023-02-28T12:20:25;6.90;99.90
10530;DHT22;5313;48.834;9.228;2023-02-28T12:28:29;6.60;98.90
10530;DHT22;5313;48.834;9.228;2023-02-28T12:31:01;7.00;98.30
10530;DHT22;5313;48.834;9.228;2023-02-28T12:33:34;6.90;97.90
10530;DHT22;5313;48.834;9.228;2023-02-28T12:36:08;6.80;98.50
10530;DHT22;5313;48.834;9.228;2023-02-28T12:38:43;6.70;98.20
10530;DHT22;5313;48.834;9.228;2023-02-28T12:41:27;7.20;97.60
10530;DHT22;5313;48.834;9.228;2023-02-28T12:44:03;6.60;97.80
10530;DHT22;5313;48.834;9.228;2023-02-28T12:46:41;7.00;97.50
10530;DHT22;5313;48.834;9.228;2023-02-28T12:49:21;6.90;97.70
10530;DHT22;5313;48.834;9.228;2023-02-28T12:51:49;6.80;98.20
10530;DHT22;5313;48.834;9.228;2023-02-28T12:57:13;6.70;97.40
10530;DHT22;5313;48.834;9.228;2023-02-28T12:59:50;6.70;97.30
10530;DHT22;5313;48.834;9.228;2023-02-28T13:05:19;7.30;96.90
10530;DHT22;5313;48.834;9.228;2023-02-28T13:07:55;7.20;95.60
10530;DHT22;5313;48.834;9.228;2023-02-28T13:10:31;7.10;95.60
10530;DHT22;5313;48.834;9.228;2023-02-28T13:13:03;7.20;95.40
10530;DHT22;5313;48.834;9.228;2023-02-28T13:15:29;6.80;95.90
10530;DHT22;5313;48.834;9.228;2023-02-28T13:17:56;6.90;96.40
10530;DHT22;5313;48.834;9.228;2023-02-28T13:20:25;7.20;97.10
10530;DHT22;5313;48.834;9.228;2023-02-28T13:22:53;7.30;95.90
10530;DHT22;5313;48.834;9.228;2023-02-28T13:27:57;7.90;94.60
10530;DHT22;5313;48.834;9.228;2023-02-28T13:33:36;7.60;93.40
10530;DHT22;5313;48.834;9.228;2023-02-28T13:38:46;8.00;93.20
10530;DHT22;5313;48.834;9.228;2023-02-28T13:46:38;8.00;93.30
10530;DHT22;5313;48.834;9.228;2023-02-28T13:49:27;7.60;93.30
10530;DHT22;5313;48.834;9.228;2023-02-28T13:54:58;7.90;93.00
10530;DHT22;5313;48.834;9.228;2023-02-28T13:57:35;8.40;92.40
10530;DHT22;5313;48.834;9.228;2023-02-28T14:00:23;8.10;92.50
10530;DHT22;5313;48.834;9.228;2023-02-28T14:05:46;8.20;92.20
10530;DHT22;5313;48.834;9.228;2023-02-28T14:08:18;8.00;92.10
10530;DHT22;5313;48.834;9.228;2023-02-28T14:10:48;8.20;91.10
10530;DHT22;5313;48.834;9.228;2023-02-28T14:15:46;7.90;91.40
10530;DHT22;5313;48.834;9.228;2023-02-28T14:18:26;7.50;93.80
10530;DHT22;5313;48.834;9.228;2023-02-28T14:20:57;7.80;92.70
10530;DHT22;5313;48.834;9.228;2023-02-28T14:24:03;7.80;93.30
10530;DHT22;5313;48.834;9.228;2023-02-28T14:30:20;7.50;94.10
10530;DHT22;5313;48.834;9.228;2023-02-28T14:33:03;6.90;94.40
10530;DHT22;5313;48.834;9.228;2023-02-28T14:36:01;6.70;96.30
10530;DHT22;5313;48.834;9.228;2023-02-28T14:38:32;7.10;96.70
10530;DHT22;5313;48.834;9.228;2023-02-28T14:41:01;7.10;96.30
10530;DHT22;5313;48.834;9.228;2023-02-28T14:43:28;7.00;96.10
10530;DHT22;5313;48.834;9.228;2023-02-28T14:45:56;6.70;96.50
10530;DHT22;5313;48.834;9.228;2023-02-28T14:48:23;6.70;96.80
10530;DHT22;5313;48.834;9.228;2023-02-28T14:50:53;6.50;97.80
10530;DHT22;5313;48.834;9.228;2023-02-28T14:53:21;6.80;97.60
10530;DHT22;5313;48.834;9.228;2023-02-28T14:55:48;6.90;97.60
10530;DHT22;5313;48.834;9.228;2023-02-28T14:58:30;6.60;97.50
10530;DHT22;5313;48.834;9.228;2023-02-28T15:00:58;6.60;97.70
10530;DHT22;5313;48.834;9.228;2023-02-28T15:03:34;6.80;97.90
10530;DHT22;5313;48.834;9.228;2023-02-28T15:06:02;6.90;97.60
10530;DHT22;5313;48.834;9.228;2023-02-28T15:08:28;6.70;97.70
10530;DHT22;5313;48.834;9.228;2023-02-28T15:11:03;6.70;98.60
10530;DHT22;5313;48.834;9.228;2023-02-28T15:16:13;6.40;98.60
10530;DHT22;5313;48.834;9.228;2023-02-28T15:18:53;6.30;99.40
10530;DHT22;5313;48.834;9.228;2023-02-28T15:21:57;6.50;99.90
10530;DHT22;5313;48.834;9.228;2023-02-28T15:24:21;6.50;99.20
10530;DHT22;5313;48.834;9.228;2023-02-28T15:26:58;6.40;99.60
10530;DHT22;5313;48.834;9.228;2023-02-28T15:29:25;6.30;99.90
10530;DHT22;5313;48.834;9.228;2023-02-28T15:32:06;6.50;99.90
10530;DHT22;5313;48.834;9.228;2023-02-28T15:34:38;6.30;99.90
10530;DHT22;5313;48.834;9.228;2023-02-28T15:37:28;6.10;99.90
10530;DHT22;5313;48.834;9.228;2023-02-28T15:39:56;6.20;99.90
10530;DHT22;5313;48.834;9.228;2023-02-28T15:42:27;6.10;99.90
10530;DHT22;5313;48.834;9.228;2023-02-28T15:44:53;6.00;99.90
10530;DHT22;5313;48.834;9.228;2023-02-28T15:47:23;6.10;99.90
10530;DHT22;5313;48.834;9.228;2023-02-28T15:50:01;6.10;99.90
10530;DHT22;5313;48.834;9.228;2023-02-28T15:52:40;6.00;99.90
10530;DHT22;5313;48.834;9.228;2023-02-28T15:55:15;6.10;99.90
10530;DHT22;5313;48.834;9.228;2023-02-28T15:57:42;5.90;99.90
10530;DHT22;5313;48.834;9.228;2023-02-28T16:00:15;5.90;99.90
10530;DHT22;5313;48.834;9.228;2023-02-28T16:02:41;5.90;99.90
10530;DHT22;5313;48.834;9.228;2023-02-28T16:07:33;5.80;99.90
10530;DHT22;5313;48.834;9.228;2023-02-28T16:09:59;5.80;99.90
10530;DHT22;5313;48.834;9.228;2023-02-28T16:12:28;5.70;99.90
10530;DHT22;5313;48.834;9.228;2023-02-28T16:14:57;5.70;99.90
10530;DHT22;5313;48.834;9.228;2023-02-28T16:17:25;5.70;99.90
10530;DHT22;5313;48.834;9.228;2023-02-28T16:19:52;5.50;99.90
10530;DHT22;5313;48.834;9.228;2023-02-28T16:22:17;5.50;99.90
10530;DHT22;5313;48.834;9.228;2023-02-28T16:24:43;5.40;99.90
10530;DHT22;5313;48.834;9.228;2023-02-28T16:27:21;5.30;99.90
10530;DHT22;5313;48.834;9.228;2023-02-28T16:29:49;5.30;99.90
10530;DHT22;5313;48.834;9.228;2023-02-28T16:32:15;5.30;99.90
10530;DHT22;5313;48.834;9.228;2023-02-28T16:34:42;5.30;99.90
10530;DHT22;5313;48.834;9.228;2023-02-28T16:37:16;5.30;99.90
10530;DHT22;5313;48.834;9.228;2023-02-28T16:39:43;5.30;99.90
10530;DHT22;5313;48.834;9.228;2023-02-28T16:42:25;5.30;99.90
10530;DHT22;5313;48.834;9.228;2023-02-28T16:44:52;5.10;99.90
10530;DHT22;5313;48.834;9.228;2023-02-28T16:47:18;5.10;99.90
10530;DHT22;5313;48.834;9.228;2023-02-28T16:49:44;5.00;99.90
10530;DHT22;5313;48.834;9.228;2023-02-28T16:52:10;4.90;99.90
10530;DHT22;5313;48.834;9.228;2023-02-28T16:54:37;4.80;99.90
10530;DHT22;5313;48.834;9.228;2023-02-28T16:57:04;4.70;99.90
10530;DHT22;5313;48.834;9.228;2023-02-28T16:59:30;4.80;99.90
10530;DHT22;5313;48.834;9.228;2023-02-28T17:01:57;4.80;99.90
10530;DHT22;5313;48.834;9.228;2023-02-28T17:04:24;4.60;99.90
10530;DHT22;5313;48.834;9.228;2023-02-28T17:06:50;4.60;99.90
10530;DHT22;5313;48.834;9.228;2023-02-28T17:09:23;4.50;99.90
10530;DHT22;5313;48.834;9.228;2023-02-28T17:11:50;4.50;99.90
10530;DHT22;5313;48.834;9.228;2023-02-28T17:14:16;4.30;99.90
10530;DHT22;5313;48.834;9.228;2023-02-28T17:16:42;4.30;99.90
10530;DHT22;5313;48.834;9.228;2023-02-28T17:19:13;4.20;99.90
10530;DHT22;5313;48.834;9.228;2023-02-28T17:21:39;4.10;99.90
10530;DHT22;5313;48.834;9.228;2023-02-28T17:24:07;4.00;99.90
10530;DHT22;5313;48.834;9.228;2023-02-28T17:26:32;3.90;99.90
10530;DHT22;5313;48.834;9.228;2023-02-28T17:28:58;3.90;99.90
10530;DHT22;5313;48.834;9.228;2023-02-28T17:31:25;4.00;99.90
10530;DHT22;5313;48.834;9.228;2023-02-28T17:33:51;3.80;99.90
10530;DHT22;5313;48.834;9.228;2023-02-28T17:36:24;3.90;99.90
10530;DHT22;5313;48.834;9.228;2023-02-28T17:38:51;3.70;99.90
10530;DHT22;5313;48.834;9.228;2023-02-28T17:41:17;3.60;99.90
10530;DHT22;5313;48.834;9.228;2023-02-28T17:43:42;3.60;99.90
10530;DHT22;5313;48.834;9.228;2023-02-28T17:46:16;3.60;99.90
10530;DHT22;5313;48.834;9.228;2023-02-28T17:48:45;3.60;99.90